sensor_id;sensor_type;location;lat;lon;timestamp;P1;durP1;ratioP1;P2;durP2;ratioP2
35444;SDS011;21562;49.476;6.086;2023-03-24T00:02:07;7.10;;;5.47;;
35444;SDS011;21562;49.476;6.086;2023-03-24T00:04:33;11.85;;;6.40;;
35444;SDS011;21562;49.476;6.086;2023-03-24T00:07:00;12.75;;;6.10;;
35444;SDS011;21562;49.476;6.086;2023-03-24T00:09:27;11.60;;;6.07;;
35444;SDS011;21562;49.476;6.086;2023-03-24T00:11:56;14.15;;;6.80;;
35444;SDS011;21562;49.476;6.086;2023-03-24T00:14:22;12.70;;;7.03;;
35444;SDS011;21562;49.476;6.086;2023-03-24T00:16:49;12.60;;;6.85;;
35444;SDS011;21562;49.476;6.086;2023-03-24T00:19:15;13.25;;;6.68;;
35444;SDS011;21562;49.476;6.086;2023-03-24T00:21:41;13.10;;;7.07;;
35444;SDS011;21562;49.476;6.086;2023-03-24T00:24:08;14.25;;;7.13;;
35444;SDS011;21562;49.476;6.086;2023-03-24T00:26:36;10.80;;;6.72;;
35444;SDS011;21562;49.476;6.086;2023-03-24T00:29:03;12.30;;;7.43;;
35444;SDS011;21562;49.476;6.086;2023-03-24T00:31:31;12.60;;;7.10;;
35444;SDS011;21562;49.476;6.086;2023-03-24T00:33:57;13.52;;;7.03;;
35444;SDS011;21562;49.476;6.086;2023-03-24T00:36:24;13.27;;;7.35;;
35444;SDS011;21562;49.476;6.086;2023-03-24T00:38:51;16.77;;;7.75;;
35444;SDS011;21562;49.476;6.086;2023-03-24T00:41:18;13.70;;;7.55;;
35444;SDS011;21562;49.476;6.086;2023-03-24T00:43:47;13.57;;;7.30;;
35444;SDS011;21562;49.476;6.086;2023-03-24T00:46:14;14.63;;;9.15;;
35444;SDS011;21562;49.476;6.086;2023-03-24T00:48:53;17.83;;;11.07;;
35444;SDS011;21562;49.476;6.086;2023-03-24T00:51:30;15.88;;;10.00;;
35444;SDS011;21562;49.476;6.086;2023-03-24T00:56:27;13.98;;;8.35;;
35444;SDS011;21562;49.476;6.086;2023-03-24T00:58:55;15.65;;;8.32;;
35444;SDS011;21562;49.476;6.086;2023-03-24T01:01:22;13.43;;;7.82;;
35444;SDS011;21562;49.476;6.086;2023-03-24T01:03:53;17.20;;;7.90;;
35444;SDS011;21562;49.476;6.086;2023-03-24T01:06:20;12.38;;;7.88;;
35444;SDS011;21562;49.476;6.086;2023-03-24T01:08:47;13.73;;;7.38;;
35444;SDS011;21562;49.476;6.086;2023-03-24T01:11:14;13.55;;;7.95;;
35444;SDS011;21562;49.476;6.086;2023-03-24T01:13:40;14.05;;;7.93;;
35444;SDS011;21562;49.476;6.086;2023-03-24T01:16:06;15.02;;;7.70;;
35444;SDS011;21562;49.476;6.086;2023-03-24T01:18:33;12.13;;;8.15;;
35444;SDS011;21562;49.476;6.086;2023-03-24T01:21:04;14.48;;;8.05;;
35444;SDS011;21562;49.476;6.086;2023-03-24T01:23:32;14.57;;;7.75;;
35444;SDS011;21562;49.476;6.086;2023-03-24T01:25:58;12.60;;;8.52;;
35444;SDS011;21562;49.476;6.086;2023-03-24T01:28:28;14.93;;;8.55;;
35444;SDS011;21562;49.476;6.086;2023-03-24T01:30:54;13.65;;;8.45;;
35444;SDS011;21562;49.476;6.086;2023-03-24T01:33:20;15.13;;;8.52;;
35444;SDS011;21562;49.476;6.086;2023-03-24T01:35:46;14.20;;;8.07;;
35444;SDS011;21562;49.476;6.086;2023-03-24T01:38:12;13.35;;;8.10;;
35444;SDS011;21562;49.476;6.086;2023-03-24T01:40:39;17.48;;;8.20;;
35444;SDS011;21562;49.476;6.086;2023-03-24T01:43:10;16.48;;;8.55;;
35444;SDS011;21562;49.476;6.086;2023-03-24T01:51:02;17.52;;;8.43;;
35444;SDS011;21562;49.476;6.086;2023-03-24T01:54:06;15.55;;;8.15;;
35444;SDS011;21562;49.476;6.086;2023-03-24T01:56:40;16.17;;;7.68;;
35444;SDS011;21562;49.476;6.086;2023-03-24T01:59:11;21.15;;;7.88;;
35444;SDS011;21562;49.476;6.086;2023-03-24T02:01:40;14.05;;;7.97;;
35444;SDS011;21562;49.476;6.086;2023-03-24T02:04:06;13.25;;;8.18;;
35444;SDS011;21562;49.476;6.086;2023-03-24T02:06:33;14.85;;;7.80;;
35444;SDS011;21562;49.476;6.086;2023-03-24T02:09:04;15.75;;;8.40;;
35444;SDS011;21562;49.476;6.086;2023-03-24T02:11:32;12.80;;;8.05;;
35444;SDS011;21562;49.476;6.086;2023-03-24T02:13:59;11.13;;;7.40;;
35444;SDS011;21562;49.476;6.086;2023-03-24T02:41:32;10.40;;;6.68;;
35444;SDS011;21562;49.476;6.086;2023-03-24T02:44:19;10.27;;;5.72;;
35444;SDS011;21562;49.476;6.086;2023-03-24T02:55:12;9.52;;;5.03;;
35444;SDS011;21562;49.476;6.086;2023-03-24T02:57:31;7.38;;;4.00;;
35444;SDS011;21562;49.476;6.086;2023-03-24T03:00:43;11.60;;;4.82;;
35444;SDS011;21562;49.476;6.086;2023-03-24T03:03:01;6.88;;;4.18;;
35444;SDS011;21562;49.476;6.086;2023-03-24T03:08:06;7.57;;;3.63;;
35444;SDS011;21562;49.476;6.086;2023-03-24T03:10:36;6.05;;;3.97;;
35444;SDS011;21562;49.476;6.086;2023-03-24T03:13:05;8.52;;;3.97;;
35444;SDS011;21562;49.476;6.086;2023-03-24T03:15:38;7.07;;;4.00;;
35444;SDS011;21562;49.476;6.086;2023-03-24T03:18:13;7.90;;;4.25;;
35444;SDS011;21562;49.476;6.086;2023-03-24T03:20:47;8.43;;;4.05;;
35444;SDS011;21562;49.476;6.086;2023-03-24T03:23:24;6.60;;;3.72;;
35444;SDS011;21562;49.476;6.086;2023-03-24T03:25:56;8.57;;;3.80;;
35444;SDS011;21562;49.476;6.086;2023-03-24T03:28:37;7.90;;;3.47;;
35444;SDS011;21562;49.476;6.086;2023-03-24T03:31:09;9.75;;;3.83;;
35444;SDS011;21562;49.476;6.086;2023-03-24T03:33:45;8.77;;;3.70;;
35444;SDS011;21562;49.476;6.086;2023-03-24T03:41:48;7.38;;;3.05;;
35444;SDS011;21562;49.476;6.086;2023-03-24T03:44:13;9.05;;;2.90;;
35444;SDS011;21562;49.476;6.086;2023-03-24T03:46:40;5.07;;;2.92;;
35444;SDS011;21562;49.476;6.086;2023-03-24T03:49:06;3.63;;;2.35;;
35444;SDS011;21562;49.476;6.086;2023-03-24T03:51:32;5.53;;;2.60;;
35444;SDS011;21562;49.476;6.086;2023-03-24T03:54:00;5.13;;;2.78;;
35444;SDS011;21562;49.476;6.086;2023-03-24T03:56:31;3.50;;;2.33;;
35444;SDS011;21562;49.476;6.086;2023-03-24T03:58:59;4.57;;;2.00;;
35444;SDS011;21562;49.476;6.086;2023-03-24T04:01:25;3.60;;;2.17;;
35444;SDS011;21562;49.476;6.086;2023-03-24T04:20:23;1.85;;;1.30;;
35444;SDS011;21562;49.476;6.086;2023-03-24T04:23:12;2.38;;;1.38;;
35444;SDS011;21562;49.476;6.086;2023-03-24T04:33:59;2.75;;;1.00;;
35444;SDS011;21562;49.476;6.086;2023-03-24T04:39:06;2.58;;;1.00;;
35444;SDS011;21562;49.476;6.086;2023-03-24T04:41:36;1.58;;;0.85;;
35444;SDS011;21562;49.476;6.086;2023-03-24T04:44:04;1.08;;;0.60;;
35444;SDS011;21562;49.476;6.086;2023-03-24T04:46:29;2.90;;;1.50;;
35444;SDS011;21562;49.476;6.086;2023-03-24T04:48:56;3.15;;;1.17;;
35444;SDS011;21562;49.476;6.086;2023-03-24T04:51:22;2.10;;;1.52;;
35444;SDS011;21562;49.476;6.086;2023-03-24T04:53:48;1.10;;;1.00;;
35444;SDS011;21562;49.476;6.086;2023-03-24T04:56:59;2.55;;;0.90;;
35444;SDS011;21562;49.476;6.086;2023-03-24T04:59:04;3.92;;;1.52;;
35444;SDS011;21562;49.476;6.086;2023-03-24T05:01:31;2.95;;;1.23;;
35444;SDS011;21562;49.476;6.086;2023-03-24T05:04:01;1.45;;;1.15;;
35444;SDS011;21562;49.476;6.086;2023-03-24T05:06:28;5.13;;;1.20;;
35444;SDS011;21562;49.476;6.086;2023-03-24T05:08:54;4.60;;;1.33;;
35444;SDS011;21562;49.476;6.086;2023-03-24T05:11:23;1.88;;;1.00;;
35444;SDS011;21562;49.476;6.086;2023-03-24T05:13:49;13.40;;;2.15;;
35444;SDS011;21562;49.476;6.086;2023-03-24T05:16:15;3.05;;;1.30;;
35444;SDS011;21562;49.476;6.086;2023-03-24T05:18:41;6.00;;;2.55;;
35444;SDS011;21562;49.476;6.086;2023-03-24T05:21:07;2.30;;;1.23;;
35444;SDS011;21562;49.476;6.086;2023-03-24T05:23:32;1.52;;;1.20;;
35444;SDS011;21562;49.476;6.086;2023-03-24T05:25:58;1.27;;;1.00;;
35444;SDS011;21562;49.476;6.086;2023-03-24T05:28:24;2.50;;;1.17;;
35444;SDS011;21562;49.476;6.086;2023-03-24T05:30:49;3.83;;;1.17;;
35444;SDS011;21562;49.476;6.086;2023-03-24T05:33:15;2.95;;;1.20;;
35444;SDS011;21562;49.476;6.086;2023-03-24T05:35:41;1.65;;;1.10;;
35444;SDS011;21562;49.476;6.086;2023-03-24T05:38:07;1.92;;;0.90;;
35444;SDS011;21562;49.476;6.086;2023-03-24T05:40:32;1.27;;;1.17;;
35444;SDS011;21562;49.476;6.086;2023-03-24T05:42:59;3.97;;;1.30;;
35444;SDS011;21562;49.476;6.086;2023-03-24T05:45:25;4.15;;;1.08;;
35444;SDS011;21562;49.476;6.086;2023-03-24T05:47:51;1.77;;;1.10;;
35444;SDS011;21562;49.476;6.086;2023-03-24T05:50:16;1.42;;;1.00;;
35444;SDS011;21562;49.476;6.086;2023-03-24T05:52:42;2.15;;;1.30;;
35444;SDS011;21562;49.476;6.086;2023-03-24T05:55:08;3.58;;;1.30;;
35444;SDS011;21562;49.476;6.086;2023-03-24T05:57:35;4.93;;;1.08;;
35444;SDS011;21562;49.476;6.086;2023-03-24T06:00:01;2.03;;;1.20;;
35444;SDS011;21562;49.476;6.086;2023-03-24T06:02:31;1.50;;;1.20;;
35444;SDS011;21562;49.476;6.086;2023-03-24T06:04:58;3.00;;;1.45;;
35444;SDS011;21562;49.476;6.086;2023-03-24T06:07:25;4.38;;;1.27;;
35444;SDS011;21562;49.476;6.086;2023-03-24T06:09:54;1.95;;;1.10;;
35444;SDS011;21562;49.476;6.086;2023-03-24T06:12:22;2.17;;;1.50;;
35444;SDS011;21562;49.476;6.086;2023-03-24T06:14:48;4.07;;;1.60;;
35444;SDS011;21562;49.476;6.086;2023-03-24T06:17:14;2.28;;;1.10;;
35444;SDS011;21562;49.476;6.086;2023-03-24T06:19:40;2.72;;;1.45;;
35444;SDS011;21562;49.476;6.086;2023-03-24T06:22:12;1.63;;;1.30;;
35444;SDS011;21562;49.476;6.086;2023-03-24T06:24:38;2.55;;;1.55;;
35444;SDS011;21562;49.476;6.086;2023-03-24T06:27:04;2.95;;;1.48;;
35444;SDS011;21562;49.476;6.086;2023-03-24T06:29:32;4.63;;;1.30;;
35444;SDS011;21562;49.476;6.086;2023-03-24T06:31:58;2.63;;;1.55;;
35444;SDS011;21562;49.476;6.086;2023-03-24T06:34:24;3.50;;;1.73;;
35444;SDS011;21562;49.476;6.086;2023-03-24T06:36:50;2.28;;;1.65;;
35444;SDS011;21562;49.476;6.086;2023-03-24T06:39:16;3.63;;;1.75;;
35444;SDS011;21562;49.476;6.086;2023-03-24T06:41:42;2.22;;;1.25;;
35444;SDS011;21562;49.476;6.086;2023-03-24T06:44:08;3.25;;;1.15;;
35444;SDS011;21562;49.476;6.086;2023-03-24T06:46:34;3.88;;;0.98;;
35444;SDS011;21562;49.476;6.086;2023-03-24T06:48:59;1.08;;;0.52;;
35444;SDS011;21562;49.476;6.086;2023-03-24T06:51:25;0.88;;;0.57;;
35444;SDS011;21562;49.476;6.086;2023-03-24T06:53:51;1.35;;;0.50;;
35444;SDS011;21562;49.476;6.086;2023-03-24T06:56:16;2.80;;;0.43;;
35444;SDS011;21562;49.476;6.086;2023-03-24T06:58:44;1.67;;;0.55;;
35444;SDS011;21562;49.476;6.086;2023-03-24T07:01:10;1.83;;;0.55;;
35444;SDS011;21562;49.476;6.086;2023-03-24T07:03:36;1.67;;;0.32;;
35444;SDS011;21562;49.476;6.086;2023-03-24T07:06:03;1.10;;;0.30;;
35444;SDS011;21562;49.476;6.086;2023-03-24T07:08:29;1.38;;;0.50;;
35444;SDS011;21562;49.476;6.086;2023-03-24T07:10:56;0.73;;;0.50;;
35444;SDS011;21562;49.476;6.086;2023-03-24T07:13:22;2.33;;;0.60;;
35444;SDS011;21562;49.476;6.086;2023-03-24T07:15:48;0.50;;;0.40;;
35444;SDS011;21562;49.476;6.086;2023-03-24T07:18:13;0.70;;;0.40;;
35444;SDS011;21562;49.476;6.086;2023-03-24T07:20:39;0.75;;;0.50;;
35444;SDS011;21562;49.476;6.086;2023-03-24T07:23:05;2.88;;;0.80;;
35444;SDS011;21562;49.476;6.086;2023-03-24T07:25:31;2.30;;;0.70;;
35444;SDS011;21562;49.476;6.086;2023-03-24T07:27:56;1.13;;;0.57;;
35444;SDS011;21562;49.476;6.086;2023-03-24T07:30:22;2.13;;;0.80;;
35444;SDS011;21562;49.476;6.086;2023-03-24T07:32:49;0.90;;;0.57;;
35444;SDS011;21562;49.476;6.086;2023-03-24T07:35:15;0.80;;;0.60;;
35444;SDS011;21562;49.476;6.086;2023-03-24T07:37:41;1.63;;;0.60;;
35444;SDS011;21562;49.476;6.086;2023-03-24T07:40:08;0.68;;;0.43;;
35444;SDS011;21562;49.476;6.086;2023-03-24T07:42:39;3.70;;;0.80;;
35444;SDS011;21562;49.476;6.086;2023-03-24T07:45:09;2.10;;;0.80;;
35444;SDS011;21562;49.476;6.086;2023-03-24T07:47:36;1.30;;;0.60;;
35444;SDS011;21562;49.476;6.086;2023-03-24T07:50:04;0.68;;;0.40;;
35444;SDS011;21562;49.476;6.086;2023-03-24T07:52:35;3.65;;;0.70;;
35444;SDS011;21562;49.476;6.086;2023-03-24T07:55:01;3.58;;;0.80;;
35444;SDS011;21562;49.476;6.086;2023-03-24T07:57:27;0.95;;;0.45;;
35444;SDS011;21562;49.476;6.086;2023-03-24T07:59:53;1.73;;;0.82;;
35444;SDS011;21562;49.476;6.086;2023-03-24T08:02:19;2.28;;;0.65;;
35444;SDS011;21562;49.476;6.086;2023-03-24T08:04:45;3.80;;;0.80;;
35444;SDS011;21562;49.476;6.086;2023-03-24T08:07:14;1.85;;;0.80;;
35444;SDS011;21562;49.476;6.086;2023-03-24T08:09:42;2.50;;;0.93;;
35444;SDS011;21562;49.476;6.086;2023-03-24T08:12:08;1.35;;;0.90;;
35444;SDS011;21562;49.476;6.086;2023-03-24T08:14:34;2.13;;;0.77;;
35444;SDS011;21562;49.476;6.086;2023-03-24T08:16:59;3.45;;;1.00;;
35444;SDS011;21562;49.476;6.086;2023-03-24T08:19:25;6.32;;;1.23;;
35444;SDS011;21562;49.476;6.086;2023-03-24T08:21:51;6.03;;;1.20;;
35444;SDS011;21562;49.476;6.086;2023-03-24T08:24:17;6.97;;;0.95;;
35444;SDS011;21562;49.476;6.086;2023-03-24T08:26:44;4.43;;;1.10;;
35444;SDS011;21562;49.476;6.086;2023-03-24T08:29:10;2.22;;;0.80;;
35444;SDS011;21562;49.476;6.086;2023-03-24T08:31:36;5.70;;;1.00;;
35444;SDS011;21562;49.476;6.086;2023-03-24T08:34:02;7.43;;;1.05;;
35444;SDS011;21562;49.476;6.086;2023-03-24T08:36:30;13.52;;;1.67;;
35444;SDS011;21562;49.476;6.086;2023-03-24T08:38:56;8.02;;;1.00;;
35444;SDS011;21562;49.476;6.086;2023-03-24T08:41:22;26.30;;;2.97;;
35444;SDS011;21562;49.476;6.086;2023-03-24T08:44:08;11.70;;;1.73;;
35444;SDS011;21562;49.476;6.086;2023-03-24T08:46:35;6.03;;;1.40;;
35444;SDS011;21562;49.476;6.086;2023-03-24T08:49:01;4.53;;;1.52;;
35444;SDS011;21562;49.476;6.086;2023-03-24T08:51:28;8.02;;;1.25;;
35444;SDS011;21562;49.476;6.086;2023-03-24T08:53:54;12.10;;;1.75;;
35444;SDS011;21562;49.476;6.086;2023-03-24T08:56:19;12.02;;;2.22;;
35444;SDS011;21562;49.476;6.086;2023-03-24T08:58:45;5.88;;;1.02;;
35444;SDS011;21562;49.476;6.086;2023-03-24T09:01:13;6.82;;;1.13;;
35444;SDS011;21562;49.476;6.086;2023-03-24T09:03:39;8.90;;;1.92;;
35444;SDS011;21562;49.476;6.086;2023-03-24T09:06:05;5.50;;;1.10;;
35444;SDS011;21562;49.476;6.086;2023-03-24T09:08:31;8.65;;;1.30;;
35444;SDS011;21562;49.476;6.086;2023-03-24T09:10:57;5.38;;;1.15;;
35444;SDS011;21562;49.476;6.086;2023-03-24T09:13:23;6.20;;;1.30;;
35444;SDS011;21562;49.476;6.086;2023-03-24T09:15:49;11.38;;;1.85;;
35444;SDS011;21562;49.476;6.086;2023-03-24T09:18:16;10.23;;;1.55;;
35444;SDS011;21562;49.476;6.086;2023-03-24T09:20:43;10.20;;;2.30;;
35444;SDS011;21562;49.476;6.086;2023-03-24T09:23:09;24.08;;;3.72;;
35444;SDS011;21562;49.476;6.086;2023-03-24T09:25:35;9.82;;;2.35;;
35444;SDS011;21562;49.476;6.086;2023-03-24T09:28:01;15.15;;;2.10;;
35444;SDS011;21562;49.476;6.086;2023-03-24T09:30:27;18.60;;;3.45;;
35444;SDS011;21562;49.476;6.086;2023-03-24T09:32:52;8.82;;;1.67;;
35444;SDS011;21562;49.476;6.086;2023-03-24T09:35:18;6.82;;;1.23;;
35444;SDS011;21562;49.476;6.086;2023-03-24T09:37:44;4.53;;;1.40;;
35444;SDS011;21562;49.476;6.086;2023-03-24T09:40:17;6.97;;;1.73;;
35444;SDS011;21562;49.476;6.086;2023-03-24T09:42:46;8.25;;;1.20;;
35444;SDS011;21562;49.476;6.086;2023-03-24T09:45:18;7.82;;;1.30;;
35444;SDS011;21562;49.476;6.086;2023-03-24T09:50:48;12.82;;;1.42;;
35444;SDS011;21562;49.476;6.086;2023-03-24T09:53:29;6.97;;;1.85;;
35444;SDS011;21562;49.476;6.086;2023-03-24T09:56:10;11.13;;;1.38;;
35444;SDS011;21562;49.476;6.086;2023-03-24T09:58:40;11.02;;;1.50;;
35444;SDS011;21562;49.476;6.086;2023-03-24T10:01:11;8.45;;;0.98;;
35444;SDS011;21562;49.476;6.086;2023-03-24T10:03:39;9.73;;;1.33;;
35444;SDS011;21562;49.476;6.086;2023-03-24T10:06:07;4.43;;;1.00;;
35444;SDS011;21562;49.476;6.086;2023-03-24T10:08:43;6.38;;;1.20;;
35444;SDS011;21562;49.476;6.086;2023-03-24T10:11:35;9.00;;;1.20;;
35444;SDS011;21562;49.476;6.086;2023-03-24T10:21:49;8.25;;;1.25;;
35444;SDS011;21562;49.476;6.086;2023-03-24T10:24:36;7.35;;;1.20;;
35444;SDS011;21562;49.476;6.086;2023-03-24T10:29:40;12.63;;;1.55;;
35444;SDS011;21562;49.476;6.086;2023-03-24T10:32:17;7.88;;;1.40;;
35444;SDS011;21562;49.476;6.086;2023-03-24T10:34:47;5.78;;;1.23;;
35444;SDS011;21562;49.476;6.086;2023-03-24T10:37:19;11.73;;;2.22;;
35444;SDS011;21562;49.476;6.086;2023-03-24T10:39:45;10.52;;;1.27;;
35444;SDS011;21562;49.476;6.086;2023-03-24T10:42:15;13.23;;;2.58;;
35444;SDS011;21562;49.476;6.086;2023-03-24T10:44:46;7.65;;;1.40;;
35444;SDS011;21562;49.476;6.086;2023-03-24T10:47:13;5.85;;;1.17;;
35444;SDS011;21562;49.476;6.086;2023-03-24T10:50:00;4.45;;;1.63;;
35444;SDS011;21562;49.476;6.086;2023-03-24T10:52:36;8.85;;;1.38;;
35444;SDS011;21562;49.476;6.086;2023-03-24T10:55:04;7.75;;;1.42;;
35444;SDS011;21562;49.476;6.086;2023-03-24T10:57:31;5.55;;;1.40;;
35444;SDS011;21562;49.476;6.086;2023-03-24T11:00:09;13.75;;;1.77;;
35444;SDS011;21562;49.476;6.086;2023-03-24T11:02:58;8.68;;;1.95;;
35444;SDS011;21562;49.476;6.086;2023-03-24T11:05:26;5.07;;;1.52;;
35444;SDS011;21562;49.476;6.086;2023-03-24T11:07:56;10.50;;;1.65;;
35444;SDS011;21562;49.476;6.086;2023-03-24T11:10:34;13.85;;;2.30;;
35444;SDS011;21562;49.476;6.086;2023-03-24T11:13:00;13.07;;;1.52;;
35444;SDS011;21562;49.476;6.086;2023-03-24T11:15:32;5.05;;;1.08;;
35444;SDS011;21562;49.476;6.086;2023-03-24T11:18:06;7.38;;;1.48;;
35444;SDS011;21562;49.476;6.086;2023-03-24T11:20:33;9.50;;;1.48;;
35444;SDS011;21562;49.476;6.086;2023-03-24T11:25:32;4.07;;;1.20;;
35444;SDS011;21562;49.476;6.086;2023-03-24T11:28:02;9.88;;;1.50;;
35444;SDS011;21562;49.476;6.086;2023-03-24T11:30:54;6.25;;;1.15;;
35444;SDS011;21562;49.476;6.086;2023-03-24T11:33:25;4.22;;;0.85;;
35444;SDS011;21562;49.476;6.086;2023-03-24T11:35:57;5.75;;;1.38;;
35444;SDS011;21562;49.476;6.086;2023-03-24T11:38:30;7.53;;;1.10;;
35444;SDS011;21562;49.476;6.086;2023-03-24T11:40:59;8.82;;;1.77;;
35444;SDS011;21562;49.476;6.086;2023-03-24T11:43:28;3.70;;;0.90;;
35444;SDS011;21562;49.476;6.086;2023-03-24T11:46:15;9.32;;;1.40;;
35444;SDS011;21562;49.476;6.086;2023-03-24T11:48:51;38.60;;;3.75;;
35444;SDS011;21562;49.476;6.086;2023-03-24T11:51:32;187.95;;;15.80;;
35444;SDS011;21562;49.476;6.086;2023-03-24T11:54:01;28.15;;;2.63;;
35444;SDS011;21562;49.476;6.086;2023-03-24T11:56:43;7.60;;;1.23;;
35444;SDS011;21562;49.476;6.086;2023-03-24T11:59:33;11.52;;;1.70;;
35444;SDS011;21562;49.476;6.086;2023-03-24T12:21:06;11.23;;;1.20;;
35444;SDS011;21562;49.476;6.086;2023-03-24T12:23:59;6.20;;;1.35;;
35444;SDS011;21562;49.476;6.086;2023-03-24T12:26:43;8.32;;;1.42;;
35444;SDS011;21562;49.476;6.086;2023-03-24T12:45:55;100.45;;;9.48;;
35444;SDS011;21562;49.476;6.086;2023-03-24T12:51:28;10.10;;;1.63;;
35444;SDS011;21562;49.476;6.086;2023-03-24T12:56:46;6.50;;;1.55;;
35444;SDS011;21562;49.476;6.086;2023-03-24T12:59:21;6.25;;;1.33;;
35444;SDS011;21562;49.476;6.086;2023-03-24T13:01:54;9.23;;;1.20;;
35444;SDS011;21562;49.476;6.086;2023-03-24T13:04:32;15.27;;;1.90;;
35444;SDS011;21562;49.476;6.086;2023-03-24T13:12:00;5.88;;;1.20;;
35444;SDS011;21562;49.476;6.086;2023-03-24T13:31:28;8.68;;;1.33;;
35444;SDS011;21562;49.476;6.086;2023-03-24T13:34:24;7.40;;;1.25;;
35444;SDS011;21562;49.476;6.086;2023-03-24T13:37:03;14.90;;;1.52;;
35444;SDS011;21562;49.476;6.086;2023-03-24T13:39:32;5.80;;;1.02;;
35444;SDS011;21562;49.476;6.086;2023-03-24T13:41:59;10.43;;;1.73;;
35444;SDS011;21562;49.476;6.086;2023-03-24T13:47:46;5.72;;;1.13;;
35444;SDS011;21562;49.476;6.086;2023-03-24T13:50:14;8.13;;;1.42;;
35444;SDS011;21562;49.476;6.086;2023-03-24T13:52:47;6.10;;;1.27;;
35444;SDS011;21562;49.476;6.086;2023-03-24T13:55:19;7.75;;;1.30;;
35444;SDS011;21562;49.476;6.086;2023-03-24T13:58:43;9.20;;;1.83;;
35444;SDS011;21562;49.476;6.086;2023-03-24T14:03:31;11.35;;;2.35;;
35444;SDS011;21562;49.476;6.086;2023-03-24T14:06:05;7.45;;;1.70;;
35444;SDS011;21562;49.476;6.086;2023-03-24T14:08:33;10.25;;;1.75;;
35444;SDS011;21562;49.476;6.086;2023-03-24T14:14:04;10.23;;;1.42;;
35444;SDS011;21562;49.476;6.086;2023-03-24T14:19:08;9.55;;;1.48;;
35444;SDS011;21562;49.476;6.086;2023-03-24T14:21:41;9.05;;;1.63;;
35444;SDS011;21562;49.476;6.086;2023-03-24T14:24:14;18.30;;;1.52;;
35444;SDS011;21562;49.476;6.086;2023-03-24T14:26:46;5.97;;;1.95;;
35444;SDS011;21562;49.476;6.086;2023-03-24T14:32:00;8.80;;;2.08;;
35444;SDS011;21562;49.476;6.086;2023-03-24T14:34:27;9.05;;;1.52;;
35444;SDS011;21562;49.476;6.086;2023-03-24T14:36:57;9.43;;;2.67;;
35444;SDS011;21562;49.476;6.086;2023-03-24T14:39:42;7.72;;;1.17;;
35444;SDS011;21562;49.476;6.086;2023-03-24T14:42:56;10.88;;;1.30;;
35444;SDS011;21562;49.476;6.086;2023-03-24T14:44:57;15.48;;;1.85;;
35444;SDS011;21562;49.476;6.086;2023-03-24T14:47:34;10.27;;;1.27;;
35444;SDS011;21562;49.476;6.086;2023-03-24T14:50:15;8.38;;;1.40;;
35444;SDS011;21562;49.476;6.086;2023-03-24T14:52:44;10.15;;;1.48;;
35444;SDS011;21562;49.476;6.086;2023-03-24T14:55:15;8.18;;;1.40;;
35444;SDS011;21562;49.476;6.086;2023-03-24T14:57:44;9.02;;;1.30;;
35444;SDS011;21562;49.476;6.086;2023-03-24T15:00:16;8.00;;;1.30;;
35444;SDS011;21562;49.476;6.086;2023-03-24T15:02:45;8.48;;;1.10;;
35444;SDS011;21562;49.476;6.086;2023-03-24T15:15:55;3.70;;;0.77;;
35444;SDS011;21562;49.476;6.086;2023-03-24T15:18:21;6.05;;;0.90;;
35444;SDS011;21562;49.476;6.086;2023-03-24T15:20:48;6.18;;;0.98;;
35444;SDS011;21562;49.476;6.086;2023-03-24T15:23:24;4.90;;;0.70;;
35444;SDS011;21562;49.476;6.086;2023-03-24T15:25:55;7.25;;;0.95;;
35444;SDS011;21562;49.476;6.086;2023-03-24T15:28:25;4.85;;;1.08;;
35444;SDS011;21562;49.476;6.086;2023-03-24T15:30:52;8.98;;;1.85;;
35444;SDS011;21562;49.476;6.086;2023-03-24T15:33:20;6.10;;;1.00;;
35444;SDS011;21562;49.476;6.086;2023-03-24T15:35:46;6.97;;;0.98;;
35444;SDS011;21562;49.476;6.086;2023-03-24T15:38:26;6.15;;;1.17;;
35444;SDS011;21562;49.476;6.086;2023-03-24T15:41:01;4.07;;;1.05;;
35444;SDS011;21562;49.476;6.086;2023-03-24T15:43:49;6.40;;;1.75;;
35444;SDS011;21562;49.476;6.086;2023-03-24T15:46:18;9.57;;;1.25;;
35444;SDS011;21562;49.476;6.086;2023-03-24T15:48:47;6.30;;;1.58;;
35444;SDS011;21562;49.476;6.086;2023-03-24T15:51:14;7.28;;;1.40;;
35444;SDS011;21562;49.476;6.086;2023-03-24T15:58:52;5.40;;;0.80;;
35444;SDS011;21562;49.476;6.086;2023-03-24T16:01:45;4.78;;;1.27;;
35444;SDS011;21562;49.476;6.086;2023-03-24T16:04:15;13.02;;;1.60;;
35444;SDS011;21562;49.476;6.086;2023-03-24T16:06:46;9.93;;;1.48;;
35444;SDS011;21562;49.476;6.086;2023-03-24T16:09:18;6.75;;;1.65;;
35444;SDS011;21562;49.476;6.086;2023-03-24T16:11:51;8.68;;;1.40;;
35444;SDS011;21562;49.476;6.086;2023-03-24T16:16:54;7.57;;;1.30;;
35444;SDS011;21562;49.476;6.086;2023-03-24T16:19:22;9.63;;;1.80;;
35444;SDS011;21562;49.476;6.086;2023-03-24T16:21:47;9.95;;;1.55;;
35444;SDS011;21562;49.476;6.086;2023-03-24T16:24:13;13.05;;;1.83;;
35444;SDS011;21562;49.476;6.086;2023-03-24T16:26:39;10.20;;;1.33;;
35444;SDS011;21562;49.476;6.086;2023-03-24T16:29:15;9.30;;;1.40;;
35444;SDS011;21562;49.476;6.086;2023-03-24T16:31:43;8.82;;;1.73;;
35444;SDS011;21562;49.476;6.086;2023-03-24T16:34:17;8.57;;;1.63;;
35444;SDS011;21562;49.476;6.086;2023-03-24T16:36:46;4.93;;;1.13;;
35444;SDS011;21562;49.476;6.086;2023-03-24T16:39:17;8.90;;;1.35;;
35444;SDS011;21562;49.476;6.086;2023-03-24T16:41:45;9.07;;;1.60;;
35444;SDS011;21562;49.476;6.086;2023-03-24T16:44:11;11.98;;;1.10;;
35444;SDS011;21562;49.476;6.086;2023-03-24T16:46:37;16.83;;;2.70;;
35444;SDS011;21562;49.476;6.086;2023-03-24T16:49:05;5.15;;;1.25;;
35444;SDS011;21562;49.476;6.086;2023-03-24T16:51:32;5.05;;;0.90;;
35444;SDS011;21562;49.476;6.086;2023-03-24T16:53:58;3.88;;;0.65;;
35444;SDS011;21562;49.476;6.086;2023-03-24T16:56:23;5.28;;;0.50;;
35444;SDS011;21562;49.476;6.086;2023-03-24T16:58:50;3.17;;;0.55;;
35444;SDS011;21562;49.476;6.086;2023-03-24T17:01:18;2.90;;;0.50;;
35444;SDS011;21562;49.476;6.086;2023-03-24T17:04:01;3.85;;;0.50;;
35444;SDS011;21562;49.476;6.086;2023-03-24T17:06:29;1.67;;;0.55;;
35444;SDS011;21562;49.476;6.086;2023-03-24T17:08:57;1.98;;;0.65;;
35444;SDS011;21562;49.476;6.086;2023-03-24T17:13:56;5.13;;;0.52;;
35444;SDS011;21562;49.476;6.086;2023-03-24T17:16:28;2.33;;;0.70;;
35444;SDS011;21562;49.476;6.086;2023-03-24T17:19:00;3.50;;;0.38;;
35444;SDS011;21562;49.476;6.086;2023-03-24T17:21:26;1.88;;;0.40;;
35444;SDS011;21562;49.476;6.086;2023-03-24T17:23:52;1.30;;;0.40;;
35444;SDS011;21562;49.476;6.086;2023-03-24T17:26:19;4.28;;;0.77;;
35444;SDS011;21562;49.476;6.086;2023-03-24T17:28:46;5.10;;;0.52;;
35444;SDS011;21562;49.476;6.086;2023-03-24T17:31:11;4.63;;;0.50;;
35444;SDS011;21562;49.476;6.086;2023-03-24T17:33:37;2.83;;;0.90;;
35444;SDS011;21562;49.476;6.086;2023-03-24T17:36:03;5.25;;;1.20;;
35444;SDS011;21562;49.476;6.086;2023-03-24T17:38:29;4.78;;;0.60;;
35444;SDS011;21562;49.476;6.086;2023-03-24T17:41:01;2.15;;;0.50;;
35444;SDS011;21562;49.476;6.086;2023-03-24T17:43:28;7.30;;;0.98;;
35444;SDS011;21562;49.476;6.086;2023-03-24T17:45:57;2.20;;;0.57;;
35444;SDS011;21562;49.476;6.086;2023-03-24T17:48:23;4.05;;;0.70;;
35444;SDS011;21562;49.476;6.086;2023-03-24T17:50:50;4.47;;;0.90;;
35444;SDS011;21562;49.476;6.086;2023-03-24T17:53:16;6.55;;;0.88;;
35444;SDS011;21562;49.476;6.086;2023-03-24T17:55:49;7.10;;;0.82;;
35444;SDS011;21562;49.476;6.086;2023-03-24T17:58:17;8.07;;;1.17;;
35444;SDS011;21562;49.476;6.086;2023-03-24T18:00:43;5.28;;;1.00;;
35444;SDS011;21562;49.476;6.086;2023-03-24T18:03:08;11.35;;;1.05;;
35444;SDS011;21562;49.476;6.086;2023-03-24T18:05:34;7.45;;;1.42;;
35444;SDS011;21562;49.476;6.086;2023-03-24T18:08:00;9.43;;;1.38;;
35444;SDS011;21562;49.476;6.086;2023-03-24T18:10:26;6.82;;;1.27;;